sensor_id;sensor_type;location;lat;lon;timestamp;temperature;humidity
22950;DHT22;11641;51.018;4.474;2022-07-29T00:01:51;20.20;99.90
22950;DHT22;11641;51.018;4.474;2022-07-29T00:04:19;20.20;99.90
22950;DHT22;11641;51.018;4.474;2022-07-29T00:06:45;20.20;99.90
22950;DHT22;11641;51.018;4.474;2022-07-29T00:09:11;20.20;99.90
22950;DHT22;11641;51.018;4.474;2022-07-29T00:11:37;20.10;99.90
22950;DHT22;11641;51.018;4.474;2022-07-29T00:14:06;20.10;99.90
22950;DHT22;11641;51.018;4.474;2022-07-29T00:16:35;20.20;99.90
22950;DHT22;11641;51.018;4.474;2022-07-29T00:19:02;20.20;99.90
22950;DHT22;11641;51.018;4.474;2022-07-29T00:21:28;20.20;99.90
22950;DHT22;11641;51.018;4.474;2022-07-29T00:23:54;20.20;99.90
22950;DHT22;11641;51.018;4.474;2022-07-29T00:26:24;20.20;99.90
22950;DHT22;11641;51.018;4.474;2022-07-29T00:28:50;20.10;99.90
22950;DHT22;11641;51.018;4.474;2022-07-29T00:31:16;20.10;99.90
22950;DHT22;11641;51.018;4.474;2022-07-29T00:33:42;20.20;99.90
22950;DHT22;11641;51.018;4.474;2022-07-29T00:36:08;20.10;99.90
22950;DHT22;11641;51.018;4.474;2022-07-29T00:38:37;20.20;99.90
22950;DHT22;11641;51.018;4.474;2022-07-29T00:41:02;20.10;99.90
22950;DHT22;11641;51.018;4.474;2022-07-29T00:43:30;20.00;99.90
22950;DHT22;11641;51.018;4.474;2022-07-29T00:45:58;20.10;99.90
22950;DHT22;11641;51.018;4.474;2022-07-29T00:48:25;20.10;99.90
22950;DHT22;11641;51.018;4.474;2022-07-29T00:50:57;20.00;99.90
22950;DHT22;11641;51.018;4.474;2022-07-29T00:53:26;20.00;99.90
22950;DHT22;11641;51.018;4.474;2022-07-29T00:55:57;20.00;99.90
22950;DHT22;11641;51.018;4.474;2022-07-29T00:58:23;20.00;99.90
22950;DHT22;11641;51.018;4.474;2022-07-29T01:00:49;20.00;99.90
22950;DHT22;11641;51.018;4.474;2022-07-29T01:03:15;20.00;99.90
22950;DHT22;11641;51.018;4.474;2022-07-29T01:05:43;19.90;99.90
22950;DHT22;11641;51.018;4.474;2022-07-29T01:08:11;19.90;99.90
22950;DHT22;11641;51.018;4.474;2022-07-29T01:10:38;19.90;99.90
22950;DHT22;11641;51.018;4.474;2022-07-29T01:13:09;19.80;99.90
22950;DHT22;11641;51.018;4.474;2022-07-29T01:15:44;19.80;99.90
22950;DHT22;11641;51.018;4.474;2022-07-29T01:18:24;19.80;99.90
22950;DHT22;11641;51.018;4.474;2022-07-29T01:26:20;19.70;99.90
22950;DHT22;11641;51.018;4.474;2022-07-29T01:29:24;19.70;99.90
22950;DHT22;11641;51.018;4.474;2022-07-29T01:31:54;19.70;99.90
22950;DHT22;11641;51.018;4.474;2022-07-29T01:34:38;19.70;99.90
22950;DHT22;11641;51.018;4.474;2022-07-29T01:37:36;19.60;99.90
22950;DHT22;11641;51.018;4.474;2022-07-29T01:40:05;19.70;99.90
22950;DHT22;11641;51.018;4.474;2022-07-29T01:42:36;19.50;99.90
22950;DHT22;11641;51.018;4.474;2022-07-29T01:48:24;19.60;99.90
22950;DHT22;11641;51.018;4.474;2022-07-29T01:51:04;19.40;99.90
22950;DHT22;11641;51.018;4.474;2022-07-29T01:53:35;19.30;99.90
22950;DHT22;11641;51.018;4.474;2022-07-29T01:56:06;19.30;99.90
22950;DHT22;11641;51.018;4.474;2022-07-29T01:58:39;19.20;99.90
22950;DHT22;11641;51.018;4.474;2022-07-29T02:01:10;19.20;99.90
22950;DHT22;11641;51.018;4.474;2022-07-29T02:03:44;19.10;99.90
22950;DHT22;11641;51.018;4.474;2022-07-29T02:06:17;19.20;99.90
22950;DHT22;11641;51.018;4.474;2022-07-29T02:08:45;19.10;99.90
22950;DHT22;11641;51.018;4.474;2022-07-29T02:11:13;19.10;99.90
22950;DHT22;11641;51.018;4.474;2022-07-29T02:13:40;19.00;99.90
22950;DHT22;11641;51.018;4.474;2022-07-29T02:16:07;19.00;99.90
22950;DHT22;11641;51.018;4.474;2022-07-29T02:18:39;18.90;99.90
22950;DHT22;11641;51.018;4.474;2022-07-29T02:21:06;18.90;99.90
22950;DHT22;11641;51.018;4.474;2022-07-29T02:23:36;18.90;99.90
22950;DHT22;11641;51.018;4.474;2022-07-29T02:26:04;18.70;99.90
22950;DHT22;11641;51.018;4.474;2022-07-29T02:28:35;18.70;99.90
22950;DHT22;11641;51.018;4.474;2022-07-29T02:31:02;18.70;99.90
22950;DHT22;11641;51.018;4.474;2022-07-29T02:33:32;18.70;99.90
22950;DHT22;11641;51.018;4.474;2022-07-29T02:35:59;18.60;99.90
22950;DHT22;11641;51.018;4.474;2022-07-29T02:38:28;18.60;99.90
22950;DHT22;11641;51.018;4.474;2022-07-29T02:41:37;18.60;99.90
22950;DHT22;11641;51.018;4.474;2022-07-29T02:44:09;18.50;99.90
22950;DHT22;11641;51.018;4.474;2022-07-29T02:46:48;18.60;99.90
22950;DHT22;11641;51.018;4.474;2022-07-29T02:51:53;18.50;99.90
22950;DHT22;11641;51.018;4.474;2022-07-29T02:54:27;18.60;99.90
22950;DHT22;11641;51.018;4.474;2022-07-29T02:57:08;18.40;99.90
22950;DHT22;11641;51.018;4.474;2022-07-29T02:59:36;18.40;99.90
22950;DHT22;11641;51.018;4.474;2022-07-29T03:02:05;18.40;99.90
22950;DHT22;11641;51.018;4.474;2022-07-29T03:04:32;18.30;99.90
22950;DHT22;11641;51.018;4.474;2022-07-29T03:07:21;18.20;99.90
22950;DHT22;11641;51.018;4.474;2022-07-29T03:09:51;18.30;99.90
22950;DHT22;11641;51.018;4.474;2022-07-29T03:12:18;18.20;99.90
22950;DHT22;11641;51.018;4.474;2022-07-29T03:14:45;18.10;99.90
22950;DHT22;11641;51.018;4.474;2022-07-29T03:17:12;18.00;99.90
22950;DHT22;11641;51.018;4.474;2022-07-29T03:19:39;18.00;99.90
22950;DHT22;11641;51.018;4.474;2022-07-29T03:22:07;18.00;99.90
22950;DHT22;11641;51.018;4.474;2022-07-29T03:24:35;18.00;99.90
22950;DHT22;11641;51.018;4.474;2022-07-29T03:27:02;18.00;99.90
22950;DHT22;11641;51.018;4.474;2022-07-29T03:29:30;18.00;99.90
22950;DHT22;11641;51.018;4.474;2022-07-29T03:31:59;17.90;99.90
22950;DHT22;11641;51.018;4.474;2022-07-29T03:34:29;17.80;99.90
22950;DHT22;11641;51.018;4.474;2022-07-29T03:36:54;17.80;99.90
22950;DHT22;11641;51.018;4.474;2022-07-29T03:39:24;17.70;99.90
22950;DHT22;11641;51.018;4.474;2022-07-29T03:41:56;17.80;99.90
22950;DHT22;11641;51.018;4.474;2022-07-29T03:44:26;17.80;99.90
22950;DHT22;11641;51.018;4.474;2022-07-29T03:46:54;17.80;99.90
22950;DHT22;11641;51.018;4.474;2022-07-29T03:49:22;17.70;99.90
22950;DHT22;11641;51.018;4.474;2022-07-29T03:51:49;17.70;99.90
22950;DHT22;11641;51.018;4.474;2022-07-29T03:54:18;17.60;99.90
22950;DHT22;11641;51.018;4.474;2022-07-29T03:56:46;17.60;99.90
22950;DHT22;11641;51.018;4.474;2022-07-29T03:59:16;17.60;99.90
22950;DHT22;11641;51.018;4.474;2022-07-29T04:01:46;17.60;99.90
22950;DHT22;11641;51.018;4.474;2022-07-29T04:04:13;17.60;99.90
22950;DHT22;11641;51.018;4.474;2022-07-29T04:06:41;17.50;99.90
22950;DHT22;11641;51.018;4.474;2022-07-29T04:09:10;17.50;99.90
22950;DHT22;11641;51.018;4.474;2022-07-29T04:11:39;17.40;99.90
22950;DHT22;11641;51.018;4.474;2022-07-29T04:14:06;17.50;99.90
22950;DHT22;11641;51.018;4.474;2022-07-29T04:16:32;17.50;99.90
22950;DHT22;11641;51.018;4.474;2022-07-29T04:18:59;17.50;99.90
22950;DHT22;11641;51.018;4.474;2022-07-29T04:21:26;17.40;99.90
22950;DHT22;11641;51.018;4.474;2022-07-29T04:23:52;17.40;99.90
22950;DHT22;11641;51.018;4.474;2022-07-29T04:26:22;17.50;99.90
22950;DHT22;11641;51.018;4.474;2022-07-29T04:28:51;17.40;99.90
22950;DHT22;11641;51.018;4.474;2022-07-29T04:31:22;17.40;99.90
22950;DHT22;11641;51.018;4.474;2022-07-29T04:33:52;17.40;99.90
22950;DHT22;11641;51.018;4.474;2022-07-29T04:36:20;17.40;99.90
22950;DHT22;11641;51.018;4.474;2022-07-29T04:38:48;17.40;99.90
22950;DHT22;11641;51.018;4.474;2022-07-29T04:41:16;17.40;99.90
22950;DHT22;11641;51.018;4.474;2022-07-29T04:43:43;17.40;99.90
22950;DHT22;11641;51.018;4.474;2022-07-29T04:46:09;17.40;99.90
22950;DHT22;11641;51.018;4.474;2022-07-29T04:48:35;17.50;99.90
22950;DHT22;11641;51.018;4.474;2022-07-29T04:51:03;17.50;99.90
22950;DHT22;11641;51.018;4.474;2022-07-29T04:53:29;17.60;99.90
22950;DHT22;11641;51.018;4.474;2022-07-29T04:55:57;17.60;99.90
22950;DHT22;11641;51.018;4.474;2022-07-29T04:58:23;17.60;99.90
22950;DHT22;11641;51.018;4.474;2022-07-29T05:00:53;17.60;99.90
22950;DHT22;11641;51.018;4.474;2022-07-29T05:03:20;17.70;99.90
22950;DHT22;11641;51.018;4.474;2022-07-29T05:05:46;17.60;99.90
22950;DHT22;11641;51.018;4.474;2022-07-29T05:08:15;17.70;99.90
22950;DHT22;11641;51.018;4.474;2022-07-29T05:10:42;17.60;99.90
22950;DHT22;11641;51.018;4.474;2022-07-29T05:13:07;17.50;99.90
22950;DHT22;11641;51.018;4.474;2022-07-29T05:15:34;17.50;99.90
22950;DHT22;11641;51.018;4.474;2022-07-29T05:18:00;17.50;99.90
22950;DHT22;11641;51.018;4.474;2022-07-29T05:20:28;17.60;99.90
22950;DHT22;11641;51.018;4.474;2022-07-29T05:23:00;17.70;99.90
22950;DHT22;11641;51.018;4.474;2022-07-29T05:25:28;17.70;99.90
22950;DHT22;11641;51.018;4.474;2022-07-29T05:27:57;17.60;99.90
22950;DHT22;11641;51.018;4.474;2022-07-29T05:30:23;17.60;99.90
22950;DHT22;11641;51.018;4.474;2022-07-29T05:32:49;17.70;99.90
22950;DHT22;11641;51.018;4.474;2022-07-29T05:35:16;17.80;99.90
22950;DHT22;11641;51.018;4.474;2022-07-29T05:37:42;17.80;99.90
22950;DHT22;11641;51.018;4.474;2022-07-29T05:40:12;17.90;99.90
22950;DHT22;11641;51.018;4.474;2022-07-29T05:42:37;18.10;99.90
22950;DHT22;11641;51.018;4.474;2022-07-29T05:45:06;18.10;99.90
22950;DHT22;11641;51.018;4.474;2022-07-29T05:47:36;18.30;99.90
22950;DHT22;11641;51.018;4.474;2022-07-29T05:50:02;18.40;99.90
22950;DHT22;11641;51.018;4.474;2022-07-29T05:52:31;18.60;99.90
22950;DHT22;11641;51.018;4.474;2022-07-29T05:55:02;18.70;99.90
22950;DHT22;11641;51.018;4.474;2022-07-29T05:57:29;19.00;99.90
22950;DHT22;11641;51.018;4.474;2022-07-29T05:59:57;19.40;99.90
22950;DHT22;11641;51.018;4.474;2022-07-29T06:02:24;19.50;99.90
22950;DHT22;11641;51.018;4.474;2022-07-29T06:04:50;19.80;99.90
22950;DHT22;11641;51.018;4.474;2022-07-29T06:07:17;20.00;99.90
22950;DHT22;11641;51.018;4.474;2022-07-29T06:09:45;20.10;99.90
22950;DHT22;11641;51.018;4.474;2022-07-29T06:12:17;20.00;99.90
22950;DHT22;11641;51.018;4.474;2022-07-29T06:14:48;20.10;99.90
22950;DHT22;11641;51.018;4.474;2022-07-29T06:17:18;20.20;99.90
22950;DHT22;11641;51.018;4.474;2022-07-29T06:19:47;20.00;99.90
22950;DHT22;11641;51.018;4.474;2022-07-29T06:22:15;20.00;99.90
22950;DHT22;11641;51.018;4.474;2022-07-29T06:24:42;20.00;99.90
22950;DHT22;11641;51.018;4.474;2022-07-29T06:27:10;20.00;99.90
22950;DHT22;11641;51.018;4.474;2022-07-29T06:29:36;19.90;99.90
22950;DHT22;11641;51.018;4.474;2022-07-29T06:32:09;19.80;99.90
22950;DHT22;11641;51.018;4.474;2022-07-29T06:34:35;19.80;99.90
22950;DHT22;11641;51.018;4.474;2022-07-29T06:37:06;19.70;99.90
22950;DHT22;11641;51.018;4.474;2022-07-29T06:39:36;19.60;99.90
22950;DHT22;11641;51.018;4.474;2022-07-29T06:42:05;19.70;99.90
22950;DHT22;11641;51.018;4.474;2022-07-29T06:44:34;19.80;99.90
22950;DHT22;11641;51.018;4.474;2022-07-29T06:47:01;19.90;99.90
22950;DHT22;11641;51.018;4.474;2022-07-29T06:49:35;19.90;99.90
22950;DHT22;11641;51.018;4.474;2022-07-29T06:52:01;19.90;99.90
22950;DHT22;11641;51.018;4.474;2022-07-29T06:54:27;19.90;99.90
22950;DHT22;11641;51.018;4.474;2022-07-29T06:56:55;20.10;99.90
22950;DHT22;11641;51.018;4.474;2022-07-29T06:59:24;20.00;99.90
22950;DHT22;11641;51.018;4.474;2022-07-29T07:01:55;20.00;99.90
22950;DHT22;11641;51.018;4.474;2022-07-29T07:04:21;20.20;99.90
22950;DHT22;11641;51.018;4.474;2022-07-29T07:06:52;20.20;99.90
22950;DHT22;11641;51.018;4.474;2022-07-29T07:09:21;20.30;99.90
22950;DHT22;11641;51.018;4.474;2022-07-29T07:11:47;20.30;99.90
22950;DHT22;11641;51.018;4.474;2022-07-29T07:14:12;20.40;99.90
22950;DHT22;11641;51.018;4.474;2022-07-29T07:16:38;20.50;99.90
22950;DHT22;11641;51.018;4.474;2022-07-29T07:19:06;20.50;99.90
22950;DHT22;11641;51.018;4.474;2022-07-29T07:21:37;20.70;99.90
22950;DHT22;11641;51.018;4.474;2022-07-29T07:24:03;21.10;99.90
22950;DHT22;11641;51.018;4.474;2022-07-29T07:26:29;21.40;99.90
22950;DHT22;11641;51.018;4.474;2022-07-29T07:28:56;21.70;99.90
22950;DHT22;11641;51.018;4.474;2022-07-29T07:31:25;22.20;99.90
22950;DHT22;11641;51.018;4.474;2022-07-29T07:33:54;22.50;99.90
22950;DHT22;11641;51.018;4.474;2022-07-29T07:36:20;22.90;99.90
22950;DHT22;11641;51.018;4.474;2022-07-29T07:38:48;23.20;99.90
22950;DHT22;11641;51.018;4.474;2022-07-29T07:41:15;23.10;99.90
22950;DHT22;11641;51.018;4.474;2022-07-29T07:43:43;23.00;99.90
22950;DHT22;11641;51.018;4.474;2022-07-29T07:46:09;22.70;99.90
22950;DHT22;11641;51.018;4.474;2022-07-29T07:48:39;22.30;99.90
22950;DHT22;11641;51.018;4.474;2022-07-29T07:51:04;22.00;99.90
22950;DHT22;11641;51.018;4.474;2022-07-29T07:53:30;21.90;99.90
22950;DHT22;11641;51.018;4.474;2022-07-29T07:55:59;21.80;99.90
22950;DHT22;11641;51.018;4.474;2022-07-29T07:58:27;21.90;99.90
22950;DHT22;11641;51.018;4.474;2022-07-29T08:00:59;22.00;99.90
22950;DHT22;11641;51.018;4.474;2022-07-29T08:03:24;21.90;99.90
22950;DHT22;11641;51.018;4.474;2022-07-29T08:05:50;21.80;99.90
22950;DHT22;11641;51.018;4.474;2022-07-29T08:08:17;21.80;99.90
22950;DHT22;11641;51.018;4.474;2022-07-29T08:10:51;21.60;99.90
22950;DHT22;11641;51.018;4.474;2022-07-29T08:13:23;21.60;99.90
22950;DHT22;11641;51.018;4.474;2022-07-29T08:15:50;21.90;99.90
22950;DHT22;11641;51.018;4.474;2022-07-29T08:18:23;22.00;99.90
22950;DHT22;11641;51.018;4.474;2022-07-29T08:20:50;22.10;99.90
22950;DHT22;11641;51.018;4.474;2022-07-29T08:23:16;22.20;99.90
22950;DHT22;11641;51.018;4.474;2022-07-29T08:25:42;22.40;99.90
22950;DHT22;11641;51.018;4.474;2022-07-29T08:28:08;22.40;99.90
22950;DHT22;11641;51.018;4.474;2022-07-29T08:30:34;22.20;99.90
22950;DHT22;11641;51.018;4.474;2022-07-29T08:33:00;22.40;99.90
22950;DHT22;11641;51.018;4.474;2022-07-29T08:35:28;22.40;99.90
22950;DHT22;11641;51.018;4.474;2022-07-29T08:37:54;22.30;99.90
22950;DHT22;11641;51.018;4.474;2022-07-29T08:40:22;22.30;99.90
22950;DHT22;11641;51.018;4.474;2022-07-29T08:42:50;22.50;99.90
22950;DHT22;11641;51.018;4.474;2022-07-29T08:45:18;22.70;99.90
22950;DHT22;11641;51.018;4.474;2022-07-29T08:47:47;22.90;99.90
22950;DHT22;11641;51.018;4.474;2022-07-29T08:50:13;23.00;99.90
22950;DHT22;11641;51.018;4.474;2022-07-29T08:52:40;23.30;99.90
22950;DHT22;11641;51.018;4.474;2022-07-29T08:55:12;23.50;99.90
22950;DHT22;11641;51.018;4.474;2022-07-29T08:57:41;23.40;99.90
22950;DHT22;11641;51.018;4.474;2022-07-29T09:00:08;23.50;99.90
22950;DHT22;11641;51.018;4.474;2022-07-29T09:02:39;23.50;99.90
22950;DHT22;11641;51.018;4.474;2022-07-29T09:05:08;23.60;99.90
22950;DHT22;11641;51.018;4.474;2022-07-29T09:07:35;23.80;99.90
22950;DHT22;11641;51.018;4.474;2022-07-29T09:10:01;24.00;99.90
22950;DHT22;11641;51.018;4.474;2022-07-29T09:12:29;23.70;99.90
22950;DHT22;11641;51.018;4.474;2022-07-29T09:14:55;23.90;99.90
22950;DHT22;11641;51.018;4.474;2022-07-29T09:17:43;24.10;99.90
22950;DHT22;11641;51.018;4.474;2022-07-29T09:20:14;24.50;99.90
22950;DHT22;11641;51.018;4.474;2022-07-29T09:22:44;24.90;99.90
22950;DHT22;11641;51.018;4.474;2022-07-29T09:25:36;24.80;99.90
22950;DHT22;11641;51.018;4.474;2022-07-29T09:33:17;25.10;99.90
22950;DHT22;11641;51.018;4.474;2022-07-29T09:35:44;25.40;99.90
22950;DHT22;11641;51.018;4.474;2022-07-29T09:38:14;25.80;99.90
22950;DHT22;11641;51.018;4.474;2022-07-29T09:40:56;26.00;99.90
22950;DHT22;11641;51.018;4.474;2022-07-29T09:43:27;25.90;99.10
22950;DHT22;11641;51.018;4.474;2022-07-29T09:45:54;26.00;99.50
22950;DHT22;11641;51.018;4.474;2022-07-29T09:48:24;26.40;99.30
22950;DHT22;11641;51.018;4.474;2022-07-29T09:50:53;26.50;98.90
22950;DHT22;11641;51.018;4.474;2022-07-29T09:56:03;27.30;95.60
22950;DHT22;11641;51.018;4.474;2022-07-29T09:58:29;27.50;94.40
22950;DHT22;11641;51.018;4.474;2022-07-29T10:00:56;27.60;94.00
22950;DHT22;11641;51.018;4.474;2022-07-29T10:03:22;27.30;94.90
22950;DHT22;11641;51.018;4.474;2022-07-29T10:06:09;27.70;93.30
22950;DHT22;11641;51.018;4.474;2022-07-29T10:08:37;28.20;90.50
22950;DHT22;11641;51.018;4.474;2022-07-29T10:11:18;28.60;89.70
22950;DHT22;11641;51.018;4.474;2022-07-29T10:13:47;29.40;88.20
22950;DHT22;11641;51.018;4.474;2022-07-29T10:16:15;30.80;81.90
22950;DHT22;11641;51.018;4.474;2022-07-29T10:18:42;32.10;79.00
22950;DHT22;11641;51.018;4.474;2022-07-29T10:21:09;33.30;72.80
22950;DHT22;11641;51.018;4.474;2022-07-29T10:23:36;34.60;67.00
22950;DHT22;11641;51.018;4.474;2022-07-29T10:26:04;36.10;62.80
22950;DHT22;11641;51.018;4.474;2022-07-29T10:28:34;37.30;58.40
22950;DHT22;11641;51.018;4.474;2022-07-29T10:31:05;38.20;55.20
22950;DHT22;11641;51.018;4.474;2022-07-29T10:34:03;39.00;52.90
22950;DHT22;11641;51.018;4.474;2022-07-29T10:36:56;39.60;51.30
22950;DHT22;11641;51.018;4.474;2022-07-29T10:39:50;40.20;49.30
22950;DHT22;11641;51.018;4.474;2022-07-29T10:42:21;40.10;46.40
22950;DHT22;11641;51.018;4.474;2022-07-29T10:44:50;39.30;47.60
22950;DHT22;11641;51.018;4.474;2022-07-29T10:47:24;39.20;47.80
22950;DHT22;11641;51.018;4.474;2022-07-29T10:50:02;39.70;47.60
22950;DHT22;11641;51.018;4.474;2022-07-29T10:53:00;40.60;46.20
22950;DHT22;11641;51.018;4.474;2022-07-29T10:55:34;40.60;44.70
22950;DHT22;11641;51.018;4.474;2022-07-29T10:58:16;40.20;45.20
22950;DHT22;11641;51.018;4.474;2022-07-29T11:00:43;39.40;44.40
22950;DHT22;11641;51.018;4.474;2022-07-29T11:03:45;40.60;45.00
22950;DHT22;11641;51.018;4.474;2022-07-29T11:06:13;41.20;44.80
22950;DHT22;11641;51.018;4.474;2022-07-29T11:08:39;40.20;44.60
22950;DHT22;11641;51.018;4.474;2022-07-29T11:13:53;39.80;45.50
22950;DHT22;11641;51.018;4.474;2022-07-29T11:16:23;39.20;46.00
22950;DHT22;11641;51.018;4.474;2022-07-29T11:21:39;39.90;45.10
22950;DHT22;11641;51.018;4.474;2022-07-29T11:24:23;41.60;42.90
22950;DHT22;11641;51.018;4.474;2022-07-29T11:27:13;43.10;41.40
22950;DHT22;11641;51.018;4.474;2022-07-29T11:30:21;43.50;39.80
22950;DHT22;11641;51.018;4.474;2022-07-29T11:33:04;44.60;38.60
22950;DHT22;11641;51.018;4.474;2022-07-29T11:35:30;44.70;37.30
22950;DHT22;11641;51.018;4.474;2022-07-29T11:38:29;45.20;37.90
22950;DHT22;11641;51.018;4.474;2022-07-29T11:43:56;47.00;34.90
22950;DHT22;11641;51.018;4.474;2022-07-29T11:49:11;46.60;35.10
22950;DHT22;11641;51.018;4.474;2022-07-29T11:51:37;46.30;35.20
22950;DHT22;11641;51.018;4.474;2022-07-29T11:54:04;46.70;34.90
22950;DHT22;11641;51.018;4.474;2022-07-29T11:56:32;46.50;33.60
22950;DHT22;11641;51.018;4.474;2022-07-29T11:59:04;44.60;35.30
22950;DHT22;11641;51.018;4.474;2022-07-29T12:01:33;43.00;36.70
22950;DHT22;11641;51.018;4.474;2022-07-29T12:04:07;41.60;38.60
22950;DHT22;11641;51.018;4.474;2022-07-29T12:06:37;39.80;38.60
22950;DHT22;11641;51.018;4.474;2022-07-29T12:09:08;39.40;40.50
22950;DHT22;11641;51.018;4.474;2022-07-29T12:11:34;38.80;41.50
22950;DHT22;11641;51.018;4.474;2022-07-29T12:14:00;38.50;41.10
22950;DHT22;11641;51.018;4.474;2022-07-29T12:16:37;38.30;42.00
22950;DHT22;11641;51.018;4.474;2022-07-29T12:19:07;40.70;39.90
22950;DHT22;11641;51.018;4.474;2022-07-29T12:21:50;42.90;38.10
22950;DHT22;11641;51.018;4.474;2022-07-29T12:24:18;42.70;37.80
22950;DHT22;11641;51.018;4.474;2022-07-29T12:26:55;41.30;37.90
22950;DHT22;11641;51.018;4.474;2022-07-29T12:29:25;41.30;38.20
22950;DHT22;11641;51.018;4.474;2022-07-29T12:31:54;41.00;38.20
22950;DHT22;11641;51.018;4.474;2022-07-29T12:34:23;41.20;38.30
22950;DHT22;11641;51.018;4.474;2022-07-29T12:36:51;40.80;39.30
22950;DHT22;11641;51.018;4.474;2022-07-29T12:39:18;41.70;37.70
22950;DHT22;11641;51.018;4.474;2022-07-29T12:41:46;43.30;36.60
22950;DHT22;11641;51.018;4.474;2022-07-29T12:44:57;45.30;35.00
22950;DHT22;11641;51.018;4.474;2022-07-29T12:47:23;44.80;34.80
22950;DHT22;11641;51.018;4.474;2022-07-29T12:49:50;43.10;35.90
22950;DHT22;11641;51.018;4.474;2022-07-29T12:52:34;40.10;39.20
22950;DHT22;11641;51.018;4.474;2022-07-29T12:55:03;38.70;41.60
22950;DHT22;11641;51.018;4.474;2022-07-29T12:57:29;38.80;42.70
22950;DHT22;11641;51.018;4.474;2022-07-29T13:00:14;40.60;40.90
22950;DHT22;11641;51.018;4.474;2022-07-29T13:02:41;43.00;37.20
22950;DHT22;11641;51.018;4.474;2022-07-29T13:05:13;44.30;36.50
22950;DHT22;11641;51.018;4.474;2022-07-29T13:07:43;44.40;35.90
22950;DHT22;11641;51.018;4.474;2022-07-29T13:10:21;43.20;37.30
22950;DHT22;11641;51.018;4.474;2022-07-29T13:13:07;42.70;37.10
22950;DHT22;11641;51.018;4.474;2022-07-29T13:15:36;43.90;36.70
22950;DHT22;11641;51.018;4.474;2022-07-29T13:18:03;43.30;37.00
22950;DHT22;11641;51.018;4.474;2022-07-29T13:20:31;42.60;37.00
22950;DHT22;11641;51.018;4.474;2022-07-29T13:22:59;42.50;36.80
22950;DHT22;11641;51.018;4.474;2022-07-29T13:25:26;41.50;38.20
22950;DHT22;11641;51.018;4.474;2022-07-29T13:27:53;39.20;40.20
22950;DHT22;11641;51.018;4.474;2022-07-29T13:30:22;37.10;41.70
22950;DHT22;11641;51.018;4.474;2022-07-29T13:32:50;37.20;42.60
22950;DHT22;11641;51.018;4.474;2022-07-29T13:35:21;37.90;41.00
22950;DHT22;11641;51.018;4.474;2022-07-29T13:37:52;38.90;40.00
22950;DHT22;11641;51.018;4.474;2022-07-29T13:40:18;38.30;41.40
22950;DHT22;11641;51.018;4.474;2022-07-29T13:42:44;39.10;40.70
22950;DHT22;11641;51.018;4.474;2022-07-29T13:45:10;40.00;39.60
22950;DHT22;11641;51.018;4.474;2022-07-29T13:47:38;40.30;38.70
22950;DHT22;11641;51.018;4.474;2022-07-29T13:50:06;39.30;39.10
22950;DHT22;11641;51.018;4.474;2022-07-29T13:52:33;37.90;40.10
22950;DHT22;11641;51.018;4.474;2022-07-29T13:55:01;35.40;43.80
22950;DHT22;11641;51.018;4.474;2022-07-29T13:57:28;35.20;44.40
22950;DHT22;11641;51.018;4.474;2022-07-29T13:59:59;34.50;45.60
22950;DHT22;11641;51.018;4.474;2022-07-29T14:02:30;33.20;47.70
22950;DHT22;11641;51.018;4.474;2022-07-29T14:04:59;32.10;50.30
22950;DHT22;11641;51.018;4.474;2022-07-29T14:07:28;31.60;51.10
22950;DHT22;11641;51.018;4.474;2022-07-29T14:09:57;32.30;50.00
22950;DHT22;11641;51.018;4.474;2022-07-29T14:12:24;33.60;48.60
22950;DHT22;11641;51.018;4.474;2022-07-29T14:14:50;35.00;45.90
22950;DHT22;11641;51.018;4.474;2022-07-29T14:17:18;36.40;44.50
22950;DHT22;11641;51.018;4.474;2022-07-29T14:19:45;39.00;42.70
22950;DHT22;11641;51.018;4.474;2022-07-29T14:22:10;41.10;38.80
22950;DHT22;11641;51.018;4.474;2022-07-29T14:24:38;42.30;37.00
22950;DHT22;11641;51.018;4.474;2022-07-29T14:27:08;44.30;34.90
22950;DHT22;11641;51.018;4.474;2022-07-29T14:29:35;45.80;33.70
22950;DHT22;11641;51.018;4.474;2022-07-29T14:32:01;45.20;33.50
22950;DHT22;11641;51.018;4.474;2022-07-29T14:34:30;44.50;34.10
22950;DHT22;11641;51.018;4.474;2022-07-29T14:36:57;45.80;32.50
22950;DHT22;11641;51.018;4.474;2022-07-29T14:39:23;44.80;32.90
22950;DHT22;11641;51.018;4.474;2022-07-29T14:41:50;44.20;34.00
22950;DHT22;11641;51.018;4.474;2022-07-29T14:44:17;45.50;33.00
22950;DHT22;11641;51.018;4.474;2022-07-29T14:46:43;46.00;32.40
22950;DHT22;11641;51.018;4.474;2022-07-29T14:49:11;43.10;34.00
22950;DHT22;11641;51.018;4.474;2022-07-29T14:51:38;42.10;35.40
22950;DHT22;11641;51.018;4.474;2022-07-29T14:54:04;42.50;36.00
22950;DHT22;11641;51.018;4.474;2022-07-29T14:56:30;41.40;36.00
22950;DHT22;11641;51.018;4.474;2022-07-29T14:58:59;41.30;36.60
22950;DHT22;11641;51.018;4.474;2022-07-29T15:01:25;41.10;36.80
22950;DHT22;11641;51.018;4.474;2022-07-29T15:03:56;41.10;36.90
22950;DHT22;11641;51.018;4.474;2022-07-29T15:06:23;42.60;36.20
22950;DHT22;11641;51.018;4.474;2022-07-29T15:08:54;43.00;35.30
22950;DHT22;11641;51.018;4.474;2022-07-29T15:11:22;41.40;35.70
22950;DHT22;11641;51.018;4.474;2022-07-29T15:13:48;41.50;37.00
22950;DHT22;11641;51.018;4.474;2022-07-29T15:16:18;43.30;35.50
22950;DHT22;11641;51.018;4.474;2022-07-29T15:18:44;44.70;34.40
22950;DHT22;11641;51.018;4.474;2022-07-29T15:21:10;44.40;33.30
22950;DHT22;11641;51.018;4.474;2022-07-29T15:23:36;42.30;35.40
22950;DHT22;11641;51.018;4.474;2022-07-29T15:26:03;43.00;36.00
22950;DHT22;11641;51.018;4.474;2022-07-29T15:28:33;44.30;34.50
22950;DHT22;11641;51.018;4.474;2022-07-29T15:30:59;44.40;34.40
22950;DHT22;11641;51.018;4.474;2022-07-29T15:33:25;44.70;34.00
22950;DHT22;11641;51.018;4.474;2022-07-29T15:35:51;43.60;34.50
22950;DHT22;11641;51.018;4.474;2022-07-29T15:38:20;42.50;35.00
22950;DHT22;11641;51.018;4.474;2022-07-29T15:40:46;42.20;35.60
22950;DHT22;11641;51.018;4.474;2022-07-29T15:43:14;42.80;35.90
22950;DHT22;11641;51.018;4.474;2022-07-29T15:45:41;43.70;34.60
22950;DHT22;11641;51.018;4.474;2022-07-29T15:48:08;43.60;34.90
22950;DHT22;11641;51.018;4.474;2022-07-29T15:50:36;42.40;34.90
22950;DHT22;11641;51.018;4.474;2022-07-29T15:53:03;41.10;35.90
22950;DHT22;11641;51.018;4.474;2022-07-29T15:55:32;41.30;37.00
22950;DHT22;11641;51.018;4.474;2022-07-29T15:57:57;42.20;36.10
22950;DHT22;11641;51.018;4.474;2022-07-29T16:00:28;42.50;35.30
22950;DHT22;11641;51.018;4.474;2022-07-29T16:02:53;42.10;35.70
22950;DHT22;11641;51.018;4.474;2022-07-29T16:05:22;42.30;36.10
22950;DHT22;11641;51.018;4.474;2022-07-29T16:07:50;40.30;37.20
22950;DHT22;11641;51.018;4.474;2022-07-29T16:10:18;41.40;37.70
22950;DHT22;11641;51.018;4.474;2022-07-29T16:12:44;41.10;36.80
22950;DHT22;11641;51.018;4.474;2022-07-29T16:15:10;40.20;38.30
22950;DHT22;11641;51.018;4.474;2022-07-29T16:17:36;40.00;38.50